»·PEaware :: DAL2337 KLAS-KSAN

DAL2337 :: KLAS-KSAN

FLIGHT INFORMATION

Flight Status: Arrived
Operator:
Delta Air Lines
More flights by this operator :: More flights under this callsign
Pilot: Omar I. (2375)
Aircraft: BOEING 737-300
(B733)
More flights by this aircraft type
Origin: KLAS McCarran Intl
United States
Destination: KSAN San Diego Intl-Lindbergh
United States
More flights between these airports :: More routes between these airports
Route: BOACH8 TNP TNO BARET5
File this flight plan on PilotEdge
Remarks:
Altitude:
(Current/Filed)
24,000ft
Speed:
(Current/Filed)
350kts
Departed: 09-Dec-18 09:57 AM
Arrived: 09-Dec-18 10:47 AM
Distance/Time
Traveled:
225nm/0:50
Distance/Time
To Go:
Arrived

Flight Plot

Page will automatically refresh every two minutes.

Flight plan parsing failed; only flown route is shown


Map Options




Map Legend


Flown Route
Filed Route
Departure Airport
Arrival Airport
Navaid (VOR, NDB)
Fix

Horizontal Profiles

Position Reports

Time Latitude Longitude Heading Altitude Ground
Speed
09-Dec-18 09:24 36.079960 -115.139574 355 2072ft 0kts
09-Dec-18 09:25 36.079960 -115.139574 355 2072ft 0kts
09-Dec-18 09:26 36.079960 -115.139574 355 2072ft 0kts
09-Dec-18 09:27 36.079960 -115.139574 355 2072ft 0kts
09-Dec-18 09:28 36.079960 -115.139574 355 2072ft 0kts
09-Dec-18 09:29 36.079960 -115.139574 355 2072ft 0kts
09-Dec-18 09:30 36.079960 -115.139574 355 2072ft 0kts
09-Dec-18 09:31 36.079960 -115.139574 355 2072ft 0kts
09-Dec-18 09:32 36.079960 -115.139574 355 2072ft 0kts
09-Dec-18 09:33 36.079960 -115.139574 355 2072ft 0kts
09-Dec-18 09:34 36.079960 -115.139574 355 2072ft 0kts
09-Dec-18 09:35 36.079960 -115.139574 355 2072ft 0kts
09-Dec-18 09:36 36.079960 -115.139574 355 2072ft 0kts
09-Dec-18 09:37 36.079960 -115.139574 355 2072ft 0kts
09-Dec-18 09:38 36.079946 -115.139573 355 2073ft 0kts
09-Dec-18 09:39 36.079402 -115.139518 356 2074ft 0kts
09-Dec-18 09:40 36.079154 -115.139522 4 2075ft 0kts
09-Dec-18 09:41 36.079155 -115.139522 4 2075ft 0kts
09-Dec-18 09:42 36.079155 -115.139522 4 2075ft 0kts
09-Dec-18 09:43 36.079155 -115.139522 4 2075ft 0kts
09-Dec-18 09:44 36.079155 -115.139522 4 2075ft 0kts
09-Dec-18 09:45 36.079155 -115.139522 4 2075ft 0kts
09-Dec-18 09:46 36.078889 -115.138606 139 2073ft 8kts
09-Dec-18 09:47 36.078286 -115.133920 90 2060ft 17kts
09-Dec-18 09:48 36.078294 -115.127450 88 2043ft 15kts
09-Dec-18 09:49 36.078046 -115.122351 125 2035ft 10kts
09-Dec-18 09:50 36.077697 -115.121777 129 2036ft 0kts
09-Dec-18 09:51 36.077697 -115.121777 129 2036ft 0kts
09-Dec-18 09:52 36.077697 -115.121777 129 2036ft 0kts
09-Dec-18 09:53 36.077697 -115.121777 129 2036ft 0kts
09-Dec-18 09:54 36.077689 -115.121766 129 2036ft 0kts
09-Dec-18 09:55 36.076426 -115.121817 271 2038ft 0kts
09-Dec-18 09:56 36.076399 -115.154441 271 2434ft 186kts
09-Dec-18 09:57 36.078584 -115.229513 273 4673ft 241kts
09-Dec-18 09:58 36.044772 -115.289749 197 6411ft 245kts
09-Dec-18 09:59 35.975177 -115.301182 182 7283ft 257kts
09-Dec-18 10:00 35.905295 -115.306471 187 7544ft 249kts
09-Dec-18 10:01 35.836008 -115.312205 177 8509ft 258kts
09-Dec-18 10:02 35.763954 -115.304372 176 9636ft 266kts
09-Dec-18 10:03 35.684226 -115.295328 177 11514ft 321kts
09-Dec-18 10:04 35.588399 -115.298152 183 13367ft 365kts
09-Dec-18 10:05 35.485564 -115.302247 184 15178ft 377kts
09-Dec-18 10:06 35.379477 -115.306445 185 16990ft 388kts
09-Dec-18 10:07 35.269499 -115.310771 185 18816ft 401kts
09-Dec-18 10:08 35.156706 -115.315194 186 20631ft 413kts
09-Dec-18 10:09 35.044175 -115.319550 187 23410ft 404kts
09-Dec-18 10:10 34.937447 -115.323761 188 25325ft 417kts
09-Dec-18 10:11 34.822780 -115.328117 188 26428ft 408kts
09-Dec-18 10:12 34.717953 -115.357804 207 26383ft 387kts
09-Dec-18 10:13 34.617347 -115.402473 206 26417ft 387kts
09-Dec-18 10:14 34.516687 -115.446463 206 26460ft 387kts
09-Dec-18 10:15 34.418109 -115.489417 206 26459ft 387kts
09-Dec-18 10:16 34.319563 -115.535364 223 26441ft 374kts
09-Dec-18 10:17 34.244010 -115.621606 229 26463ft 372kts
09-Dec-18 10:18 34.172524 -115.702489 229 26464ft 373kts
09-Dec-18 10:19 34.092438 -115.778652 201 26481ft 394kts
09-Dec-18 10:20 33.985350 -115.807494 200 26423ft 397kts
09-Dec-18 10:21 33.880615 -115.838039 200 26318ft 397kts
09-Dec-18 10:22 33.773737 -115.869207 200 26360ft 397kts
09-Dec-18 10:23 33.666909 -115.900372 200 26359ft 397kts
09-Dec-18 10:24 33.561916 -115.930927 200 26359ft 397kts
09-Dec-18 10:25 33.480434 -115.998753 244 26364ft 364kts
09-Dec-18 10:26 33.424562 -116.100327 240 26300ft 366kts
09-Dec-18 10:27 33.364370 -116.194788 227 23989ft 365kts
09-Dec-18 10:29 33.289061 -116.273391 226 21578ft 359kts
09-Dec-18 10:30 33.215447 -116.350675 225 18677ft 351kts
09-Dec-18 10:31 33.143366 -116.426241 224 15683ft 341kts
09-Dec-18 10:32 33.074041 -116.498743 223 13222ft 318kts
09-Dec-18 10:33 33.012428 -116.562063 212 12258ft 259kts
09-Dec-18 10:34 32.941154 -116.579643 191 10600ft 272kts
09-Dec-18 10:35 32.869976 -116.593667 191 9286ft 261kts
09-Dec-18 10:36 32.799884 -116.607514 191 9334ft 254kts
09-Dec-18 10:37 32.730221 -116.621216 191 9333ft 254kts
09-Dec-18 10:38 32.690785 -116.678240 260 9097ft 249kts
09-Dec-18 10:39 32.678313 -116.759768 260 6876ft 271kts
09-Dec-18 10:40 32.666068 -116.843135 261 5193ft 256kts
09-Dec-18 10:41 32.664037 -116.920680 289 4427ft 222kts
09-Dec-18 10:42 32.684648 -116.986673 288 3433ft 206kts
09-Dec-18 10:43 32.699521 -117.048777 284 2087ft 178kts
09-Dec-18 10:44 32.711033 -117.097970 296 1050ft 129kts
09-Dec-18 10:44 32.717726 -117.131296 274 559ft 136kts
09-Dec-18 10:46 32.731080 -117.179595 285 62ft 123kts
09-Dec-18 10:47 32.733167 -117.191822 242 20ft 0kts

Navigation Log

Ident Type
Flight plan parsing failed, navigation log unavailable